createdAt,value
2023-07-16T00:00:43.118Z,25.60
2023-07-16T00:03:10.107Z,25.60
2023-07-16T00:05:39.958Z,25.60
2023-07-16T00:08:06.787Z,25.60
2023-07-16T00:10:36.965Z,25.50
2023-07-16T00:13:04.332Z,25.50
2023-07-16T00:15:31.238Z,25.50
2023-07-16T00:17:58.265Z,25.50
2023-07-16T00:20:25.133Z,25.50
2023-07-16T00:22:52.493Z,25.40
2023-07-16T00:25:19.336Z,25.40
2023-07-16T00:27:46.181Z,25.40
2023-07-16T00:30:13.112Z,25.40
2023-07-16T00:32:40.110Z,25.40
2023-07-16T00:35:07.120Z,25.40
2023-07-16T00:37:34.854Z,25.40
2023-07-16T00:40:01.765Z,25.40
2023-07-16T00:42:29.958Z,25.30
2023-07-16T00:44:58.167Z,25.30
2023-07-16T00:47:25.148Z,25.30
2023-07-16T00:49:52.022Z,25.30
2023-07-16T00:52:22.111Z,25.30
2023-07-16T00:54:50.704Z,25.30
2023-07-16T00:57:17.584Z,25.30
2023-07-16T00:59:44.519Z,25.30
2023-07-16T01:02:11.641Z,25.30
2023-07-16T01:04:38.955Z,25.20
2023-07-16T01:07:07.478Z,25.20
2023-07-16T01:09:35.022Z,25.20
2023-07-16T01:12:02.208Z,25.20
2023-07-16T01:14:29.457Z,25.20
2023-07-16T01:17:00.082Z,25.20
2023-07-16T01:19:27.115Z,25.20
2023-07-16T01:22:13.166Z,25.20
2023-07-16T01:24:57.212Z,25.20
2023-07-16T01:27:53.398Z,25.20
2023-07-16T01:30:21.010Z,25.20
2023-07-16T01:32:48.925Z,25.10
2023-07-16T01:35:16.027Z,25.10
2023-07-16T01:37:43.180Z,25.10
2023-07-16T01:40:10.400Z,25.10
2023-07-16T01:42:37.242Z,25.10
2023-07-16T01:45:04.370Z,25.10
2023-07-16T01:47:31.195Z,25.10
2023-07-16T01:49:58.042Z,25.10
2023-07-16T01:52:24.876Z,25.10
2023-07-16T01:54:51.704Z,25.10
2023-07-16T01:57:22.013Z,25.10
2023-07-16T01:59:48.933Z,25.10
2023-07-16T02:02:15.812Z,25.10
2023-07-16T02:04:42.650Z,25.00
2023-07-16T02:07:09.524Z,25.00
2023-07-16T02:09:36.612Z,25.00
2023-07-16T02:12:04.462Z,25.00
2023-07-16T02:14:31.328Z,25.00
2023-07-16T02:16:58.170Z,25.00
2023-07-16T02:19:27.093Z,25.00
2023-07-16T02:21:56.488Z,25.00
2023-07-16T02:24:23.382Z,25.00
2023-07-16T02:26:52.098Z,25.00
2023-07-16T02:29:18.975Z,25.00
2023-07-16T02:31:47.662Z,25.00
2023-07-16T02:34:14.601Z,25.00
2023-07-16T02:36:41.466Z,25.00
2023-07-16T02:39:08.726Z,24.90
2023-07-16T02:41:35.575Z,24.90
2023-07-16T02:44:04.236Z,24.90
2023-07-16T02:46:31.187Z,24.90
2023-07-16T02:48:58.058Z,24.90
2023-07-16T02:51:24.980Z,24.90
2023-07-16T02:53:51.979Z,24.90
2023-07-16T02:56:18.963Z,24.90
2023-07-16T02:58:45.930Z,24.80
2023-07-16T03:01:13.286Z,24.80
2023-07-16T03:03:40.221Z,24.80
2023-07-16T03:06:07.704Z,24.80
2023-07-16T03:08:35.008Z,24.80
2023-07-16T03:11:01.867Z,24.80
2023-07-16T03:13:29.615Z,24.80
2023-07-16T03:15:56.591Z,24.80
2023-07-16T03:18:23.716Z,24.70
2023-07-16T03:20:50.587Z,24.80
2023-07-16T03:23:17.463Z,24.70
2023-07-16T03:25:44.325Z,24.70
2023-07-16T03:28:11.259Z,24.70
2023-07-16T03:30:38.655Z,24.70
2023-07-16T03:33:05.964Z,24.70
2023-07-16T03:35:32.834Z,24.70
2023-07-16T03:37:59.727Z,24.70
2023-07-16T03:40:28.594Z,24.70
2023-07-16T03:42:55.562Z,24.70
2023-07-16T03:45:24.850Z,24.70
2023-07-16T03:47:51.746Z,24.60
2023-07-16T03:50:18.857Z,24.70
2023-07-16T03:52:45.993Z,24.60
2023-07-16T03:55:14.437Z,24.60
2023-07-16T03:57:41.527Z,24.60
2023-07-16T04:00:12.126Z,24.60
2023-07-16T04:02:42.232Z,24.60
2023-07-16T04:05:14.253Z,24.60
2023-07-16T04:07:41.128Z,24.60
2023-07-16T04:10:08.310Z,24.60
2023-07-16T04:12:35.182Z,24.60
2023-07-16T04:15:02.001Z,24.60
2023-07-16T04:17:28.936Z,24.70
2023-07-16T04:19:55.900Z,24.70
2023-07-16T04:22:22.763Z,24.70
2023-07-16T04:24:49.679Z,24.70
2023-07-16T04:27:16.497Z,24.80
2023-07-16T04:29:43.375Z,24.80
2023-07-16T04:32:10.377Z,24.80
2023-07-16T04:34:37.227Z,24.90
2023-07-16T04:37:04.189Z,24.90
2023-07-16T04:39:31.048Z,25.00
2023-07-16T04:41:57.856Z,25.00
2023-07-16T04:44:24.683Z,25.00
2023-07-16T04:46:51.580Z,25.10
2023-07-16T04:49:18.407Z,25.20
2023-07-16T04:51:45.258Z,25.30
2023-07-16T04:54:12.180Z,25.40
2023-07-16T04:56:39.001Z,25.50
2023-07-16T04:59:05.889Z,25.70
2023-07-16T05:01:32.775Z,25.80
2023-07-16T05:03:59.672Z,25.80
2023-07-16T05:06:26.661Z,26.00
2023-07-16T05:08:53.495Z,26.10
2023-07-16T05:11:20.656Z,26.10
2023-07-16T05:13:47.490Z,26.30
2023-07-16T05:16:14.655Z,26.40
2023-07-16T05:18:41.865Z,26.50
2023-07-16T05:21:08.674Z,26.60
2023-07-16T05:23:35.487Z,26.80
2023-07-16T05:26:02.338Z,27.00
2023-07-16T05:28:29.162Z,27.30
2023-07-16T05:31:00.114Z,28.10
2023-07-16T05:33:26.952Z,28.90
2023-07-16T05:35:53.777Z,29.70
2023-07-16T05:38:20.629Z,30.30
2023-07-16T05:40:47.547Z,30.90
2023-07-16T05:43:15.852Z,31.40
2023-07-16T05:45:42.955Z,32.00
2023-07-16T05:48:09.930Z,32.40
2023-07-16T05:50:36.883Z,32.80
2023-07-16T05:53:03.749Z,33.20
2023-07-16T05:55:30.617Z,33.50
2023-07-16T05:57:57.565Z,33.80
2023-07-16T06:00:24.794Z,34.20
2023-07-16T06:02:51.701Z,34.50
2023-07-16T06:05:18.956Z,34.80
2023-07-16T06:07:45.829Z,35.20
2023-07-16T06:10:12.703Z,35.50
2023-07-16T06:12:39.545Z,35.80
2023-07-16T06:15:06.571Z,36.10
2023-07-16T06:17:33.393Z,36.40
2023-07-16T06:20:00.263Z,36.70
2023-07-16T06:22:27.150Z,37.00
2023-07-16T06:24:54.043Z,37.40
2023-07-16T06:27:20.873Z,37.80
2023-07-16T06:29:47.683Z,38.10
2023-07-16T06:32:14.525Z,38.30
2023-07-16T06:34:41.369Z,38.40
2023-07-16T06:37:08.212Z,38.30
2023-07-16T06:39:35.104Z,38.00
2023-07-16T06:42:02.024Z,37.60
2023-07-16T06:44:28.888Z,37.40
2023-07-16T06:46:55.774Z,37.40
2023-07-16T06:49:22.634Z,37.40
2023-07-16T06:51:49.457Z,37.20
2023-07-16T06:54:16.490Z,37.30
2023-07-16T06:56:43.357Z,37.50
2023-07-16T06:59:10.301Z,37.70
2023-07-16T07:01:37.196Z,37.70
2023-07-16T07:04:04.216Z,37.50
2023-07-16T07:06:31.080Z,37.30
2023-07-16T07:08:57.974Z,37.20
2023-07-16T07:11:24.774Z,37.30
2023-07-16T07:13:52.634Z,37.60
2023-07-16T07:16:20.779Z,37.70
2023-07-16T07:18:47.854Z,37.90
2023-07-16T07:21:14.691Z,37.90
2023-07-16T07:23:41.539Z,37.90
2023-07-16T07:26:08.402Z,38.10
2023-07-16T07:28:35.239Z,38.30
2023-07-16T07:31:02.149Z,38.60
2023-07-16T07:33:29.144Z,38.90
2023-07-16T07:35:56.615Z,38.80
2023-07-16T07:38:23.477Z,38.80
2023-07-16T07:40:50.342Z,39.00
2023-07-16T07:43:17.648Z,39.20
2023-07-16T07:45:44.797Z,39.50
2023-07-16T07:48:11.792Z,39.70
2023-07-16T07:50:38.687Z,39.90
2023-07-16T07:53:05.943Z,40.10
2023-07-16T07:55:33.010Z,40.30
2023-07-16T07:57:59.817Z,40.60
2023-07-16T08:00:26.684Z,40.80
2023-07-16T08:02:53.576Z,41.00
2023-07-16T08:05:20.529Z,40.90
2023-07-16T08:07:48.443Z,40.80
2023-07-16T08:10:15.294Z,41.10
2023-07-16T08:12:42.102Z,41.30
2023-07-16T08:15:10.525Z,41.80
2023-07-16T08:17:37.451Z,41.90
2023-07-16T08:20:05.015Z,42.20
2023-07-16T08:22:31.916Z,42.40
2023-07-16T08:24:58.833Z,42.20
2023-07-16T08:27:25.683Z,41.80
2023-07-16T08:29:52.540Z,41.50
2023-07-16T08:32:19.798Z,41.80
2023-07-16T08:34:46.645Z,42.20
2023-07-16T08:37:13.780Z,42.50
2023-07-16T08:39:40.698Z,42.80
2023-07-16T08:42:09.979Z,43.10
2023-07-16T08:44:38.201Z,43.20
2023-07-16T08:47:05.731Z,42.70
2023-07-16T08:49:34.551Z,42.40
2023-07-16T08:52:03.072Z,42.40
2023-07-16T08:54:30.026Z,42.40
2023-07-16T08:56:57.018Z,42.60
2023-07-16T08:59:23.850Z,42.90
2023-07-16T09:01:50.752Z,42.80
2023-07-16T09:04:17.915Z,42.30
2023-07-16T09:06:44.825Z,42.30
2023-07-16T09:09:24.599Z,42.40
2023-07-16T09:11:51.809Z,42.20
2023-07-16T09:14:21.590Z,42.50
2023-07-16T09:16:49.251Z,42.60
2023-07-16T09:19:18.623Z,42.80
2023-07-16T09:21:49.013Z,42.80
2023-07-16T09:24:18.086Z,42.60
2023-07-16T09:26:51.009Z,42.60
2023-07-16T09:29:18.342Z,42.80
2023-07-16T09:31:54.406Z,43.20
2023-07-16T09:34:21.424Z,43.30
2023-07-16T09:36:49.429Z,43.40
2023-07-16T09:39:22.705Z,43.30
2023-07-16T09:41:50.413Z,43.40
2023-07-16T09:44:17.816Z,43.40
2023-07-16T09:46:45.489Z,43.30
2023-07-16T09:49:12.324Z,42.80
2023-07-16T09:51:39.588Z,42.60
2023-07-16T09:54:07.172Z,42.80
2023-07-16T09:56:40.402Z,43.00
2023-07-16T09:59:10.269Z,43.20
2023-07-16T10:01:40.330Z,43.30
2023-07-16T10:04:13.348Z,43.40
2023-07-16T10:07:09.512Z,43.70
2023-07-16T10:09:43.380Z,43.80
2023-07-16T10:12:17.352Z,43.40
2023-07-16T10:14:51.963Z,43.70
2023-07-16T10:17:20.585Z,44.30
2023-07-16T10:19:49.926Z,44.30
2023-07-16T10:22:16.778Z,44.40
2023-07-16T10:24:43.594Z,44.40
2023-07-16T10:27:10.730Z,44.30
2023-07-16T10:29:37.663Z,44.50
2023-07-16T10:32:08.725Z,44.60
2023-07-16T10:34:40.776Z,44.30
2023-07-16T10:37:07.586Z,43.90
2023-07-16T10:39:34.789Z,43.80
2023-07-16T10:42:02.861Z,43.70
2023-07-16T10:44:29.864Z,43.90
2023-07-16T10:46:56.762Z,43.80
2023-07-16T10:49:29.824Z,43.70
2023-07-16T10:51:58.473Z,43.60
2023-07-16T10:54:25.432Z,43.50
2023-07-16T10:56:52.965Z,43.30
2023-07-16T10:59:19.965Z,43.20
2023-07-16T11:01:47.074Z,43.30
2023-07-16T11:04:13.969Z,42.80
2023-07-16T11:06:40.861Z,42.80
2023-07-16T11:09:10.916Z,43.20
2023-07-16T11:11:37.874Z,43.40
2023-07-16T11:14:08.303Z,43.50
2023-07-16T11:16:38.645Z,43.50
2023-07-16T11:19:06.582Z,43.10
2023-07-16T11:21:37.375Z,42.70
2023-07-16T11:24:10.890Z,42.60
2023-07-16T11:26:37.730Z,42.80
2023-07-16T11:29:13.439Z,42.60
2023-07-16T11:31:43.462Z,42.60
2023-07-16T11:34:14.157Z,42.20
2023-07-16T11:36:41.029Z,41.90
2023-07-16T11:39:07.859Z,41.40
2023-07-16T11:41:34.737Z,41.00
2023-07-16T11:44:02.494Z,40.80
2023-07-16T11:46:34.090Z,40.40
2023-07-16T11:49:01.654Z,40.00
2023-07-16T11:51:28.485Z,39.60
2023-07-16T11:53:56.745Z,39.50
2023-07-16T11:56:24.261Z,39.40
2023-07-16T11:58:52.653Z,39.10
2023-07-16T12:01:19.573Z,38.80
2023-07-16T12:03:46.569Z,38.40
2023-07-16T12:06:13.565Z,38.40
2023-07-16T12:08:40.469Z,38.10
2023-07-16T12:11:07.533Z,38.00
2023-07-16T12:13:34.393Z,38.00
2023-07-16T12:16:01.247Z,38.00
2023-07-16T12:18:28.283Z,37.90
2023-07-16T12:20:55.177Z,38.10
2023-07-16T12:23:21.987Z,38.20
2023-07-16T12:25:49.640Z,38.20
2023-07-16T12:28:16.627Z,38.00
2023-07-16T12:30:43.448Z,37.80
2023-07-16T12:33:10.356Z,37.80
2023-07-16T12:35:37.221Z,37.70
2023-07-16T12:38:04.108Z,37.60
2023-07-16T12:40:31.863Z,37.80
2023-07-16T12:42:58.739Z,37.80
2023-07-16T12:45:25.649Z,37.70
2023-07-16T12:47:52.720Z,37.60
2023-07-16T12:50:19.719Z,37.40
2023-07-16T12:52:46.565Z,37.30
2023-07-16T12:55:14.810Z,37.20
2023-07-16T12:57:41.685Z,37.10
2023-07-16T13:00:10.876Z,36.90
2023-07-16T13:02:38.236Z,36.80
2023-07-16T13:05:05.172Z,36.60
2023-07-16T13:07:32.798Z,36.50
2023-07-16T13:10:16.443Z,36.50
2023-07-16T13:12:45.263Z,36.50
2023-07-16T13:15:12.264Z,36.50
2023-07-16T13:17:39.248Z,36.50
2023-07-16T13:20:06.845Z,36.30
2023-07-16T13:22:33.818Z,36.20
2023-07-16T13:25:01.705Z,36.20
2023-07-16T13:27:28.555Z,36.30
2023-07-16T13:29:55.606Z,36.30
2023-07-16T13:32:22.555Z,36.30
2023-07-16T13:34:49.415Z,36.10
2023-07-16T13:37:16.354Z,35.90
2023-07-16T13:39:43.201Z,35.90
2023-07-16T13:42:21.896Z,35.80
2023-07-16T13:44:50.325Z,35.60
2023-07-16T13:47:17.175Z,35.60
2023-07-16T13:49:44.054Z,35.80
2023-07-16T13:52:10.922Z,35.90
2023-07-16T13:54:39.876Z,36.10
2023-07-16T13:57:09.214Z,36.10
2023-07-16T13:59:36.176Z,36.10
2023-07-16T14:02:03.604Z,36.20
2023-07-16T14:04:30.756Z,36.20
2023-07-16T14:06:57.594Z,36.10
2023-07-16T14:09:24.470Z,36.20
2023-07-16T14:11:51.315Z,36.30
2023-07-16T14:14:18.596Z,36.20
2023-07-16T14:16:45.474Z,36.10
2023-07-16T14:19:15.212Z,36.00
2023-07-16T14:21:42.052Z,35.90
2023-07-16T14:24:09.075Z,35.80
2023-07-16T14:26:36.121Z,35.90
2023-07-16T14:29:03.082Z,36.00
2023-07-16T14:31:29.974Z,35.80
2023-07-16T14:33:56.857Z,35.60
2023-07-16T14:36:23.703Z,35.40
2023-07-16T14:38:50.517Z,35.20
2023-07-16T14:41:17.428Z,35.30
2023-07-16T14:43:46.469Z,35.40
2023-07-16T14:46:18.068Z,35.40
2023-07-16T14:48:45.665Z,35.30
2023-07-16T14:51:13.054Z,35.40
2023-07-16T14:53:40.136Z,35.40
2023-07-16T14:56:07.171Z,35.50
2023-07-16T14:58:36.102Z,35.40
2023-07-16T15:01:12.481Z,35.40
2023-07-16T15:03:41.618Z,35.40
2023-07-16T15:06:08.640Z,35.50
2023-07-16T15:08:35.727Z,35.50
2023-07-16T15:11:03.178Z,35.50
2023-07-16T15:13:30.087Z,35.50
2023-07-16T15:15:58.675Z,35.50
2023-07-16T15:18:29.021Z,35.60
2023-07-16T15:21:02.190Z,35.60
2023-07-16T15:23:29.156Z,35.60
2023-07-16T15:25:56.381Z,35.50
2023-07-16T15:28:23.497Z,35.40
2023-07-16T15:30:50.577Z,35.20
2023-07-16T15:33:17.595Z,35.10
2023-07-16T15:35:44.490Z,35.00
2023-07-16T15:38:11.377Z,35.00
2023-07-16T15:40:38.282Z,35.00
2023-07-16T15:43:05.250Z,35.20
2023-07-16T15:45:32.121Z,35.20
2023-07-16T15:48:00.461Z,35.20
2023-07-16T15:50:28.228Z,35.10
2023-07-16T15:52:56.326Z,35.10
2023-07-16T15:55:23.337Z,35.00
2023-07-16T15:57:50.451Z,35.00
2023-07-16T16:00:17.730Z,35.00
2023-07-16T16:02:45.506Z,35.00
2023-07-16T16:05:12.532Z,34.90
2023-07-16T16:07:46.203Z,34.90
2023-07-16T16:10:13.807Z,34.80
2023-07-16T16:12:40.685Z,34.80
2023-07-16T16:15:07.915Z,34.80
2023-07-16T16:17:35.356Z,34.80
2023-07-16T16:20:02.360Z,34.70
2023-07-16T16:22:29.257Z,34.70
2023-07-16T16:24:56.235Z,34.60
2023-07-16T16:27:23.093Z,34.60
2023-07-16T16:29:49.940Z,34.70
2023-07-16T16:32:17.122Z,34.70
2023-07-16T16:34:44.021Z,34.70
2023-07-16T16:37:10.861Z,34.70
2023-07-16T16:39:37.668Z,34.60
2023-07-16T16:42:04.722Z,34.50
2023-07-16T16:44:31.933Z,34.60
2023-07-16T16:46:58.901Z,34.60
2023-07-16T16:49:25.884Z,34.60
2023-07-16T16:51:52.752Z,34.70
2023-07-16T16:54:19.729Z,34.70
2023-07-16T16:56:46.627Z,34.80
2023-07-16T16:59:13.412Z,34.80
2023-07-16T17:01:40.634Z,34.80
2023-07-16T17:04:07.577Z,34.80
2023-07-16T17:06:34.498Z,34.70
2023-07-16T17:09:01.468Z,34.60
2023-07-16T17:11:28.510Z,34.60
2023-07-16T17:13:55.337Z,34.60
2023-07-16T17:16:22.356Z,34.50
2023-07-16T17:18:49.233Z,34.50
2023-07-16T17:21:16.365Z,34.40
2023-07-16T17:23:43.470Z,34.40
2023-07-16T17:26:12.801Z,34.30
2023-07-16T17:28:39.678Z,34.20
2023-07-16T17:31:06.518Z,34.20
2023-07-16T17:33:33.394Z,34.10
2023-07-16T17:36:00.217Z,34.00
2023-07-16T17:38:27.066Z,33.90
2023-07-16T17:40:53.954Z,33.80
2023-07-16T17:43:20.831Z,33.60
2023-07-16T17:45:47.675Z,33.50
2023-07-16T17:48:14.533Z,33.40
2023-07-16T17:50:41.430Z,33.20
2023-07-16T17:53:08.263Z,33.20
2023-07-16T17:55:35.139Z,33.00
2023-07-16T17:58:01.992Z,32.90
2023-07-16T18:00:28.879Z,32.80
2023-07-16T18:02:57.092Z,32.70
2023-07-16T18:05:24.864Z,32.60
2023-07-16T18:07:52.966Z,32.50
2023-07-16T18:10:20.224Z,32.40
2023-07-16T18:12:47.153Z,32.20
2023-07-16T18:15:14.117Z,32.20
2023-07-16T18:17:42.225Z,32.10
2023-07-16T18:20:11.105Z,32.00
2023-07-16T18:22:38.850Z,31.80
2023-07-16T18:25:08.886Z,31.70
2023-07-16T18:27:36.059Z,31.60
2023-07-16T18:30:05.955Z,31.50
2023-07-16T18:32:33.127Z,31.40
2023-07-16T18:35:00.074Z,31.30
2023-07-16T18:37:26.958Z,31.30
2023-07-16T18:39:54.451Z,31.10
2023-07-16T18:42:25.776Z,31.00
2023-07-16T18:44:57.582Z,30.90
2023-07-16T18:47:25.143Z,30.90
2023-07-16T18:49:52.912Z,30.80
2023-07-16T18:52:20.480Z,30.70
2023-07-16T18:54:47.325Z,30.60
2023-07-16T18:57:14.282Z,30.50
2023-07-16T18:59:41.197Z,30.50
2023-07-16T19:02:08.140Z,30.40
2023-07-16T19:04:35.199Z,30.30
2023-07-16T19:07:02.513Z,30.20
2023-07-16T19:09:29.512Z,30.20
2023-07-16T19:11:56.418Z,30.10
2023-07-16T19:14:23.254Z,30.00
2023-07-16T19:16:50.185Z,30.00
2023-07-16T19:19:17.081Z,30.00
2023-07-16T19:21:43.925Z,29.90
2023-07-16T19:24:13.064Z,29.80
2023-07-16T19:26:40.530Z,29.80
2023-07-16T19:29:07.378Z,29.70
2023-07-16T19:31:34.310Z,29.60
2023-07-16T19:34:01.588Z,29.60
2023-07-16T19:36:28.556Z,29.50
2023-07-16T19:38:55.458Z,29.50
2023-07-16T19:41:22.338Z,29.50
2023-07-16T19:43:49.185Z,29.40
2023-07-16T19:46:16.305Z,29.40
2023-07-16T19:48:43.350Z,29.30
2023-07-16T19:51:10.243Z,29.30
2023-07-16T19:53:37.230Z,29.30
2023-07-16T19:56:04.164Z,29.20
2023-07-16T19:58:31.057Z,29.20
2023-07-16T20:00:58.203Z,29.20
2023-07-16T20:03:25.173Z,29.10
2023-07-16T20:05:52.255Z,29.10
2023-07-16T20:08:19.136Z,29.10
2023-07-16T20:10:46.948Z,29.00
2023-07-16T20:13:14.207Z,29.00
2023-07-16T20:15:41.311Z,29.00
2023-07-16T20:18:08.403Z,28.90
2023-07-16T20:20:36.351Z,28.90
2023-07-16T20:23:03.615Z,28.80
2023-07-16T20:25:30.891Z,28.90
2023-07-16T20:27:58.039Z,28.80
2023-07-16T20:30:25.178Z,28.80
2023-07-16T20:32:52.478Z,28.70
2023-07-16T20:35:19.855Z,28.70
2023-07-16T20:37:46.776Z,28.60
2023-07-16T20:40:13.723Z,28.60
2023-07-16T20:42:42.252Z,28.60
2023-07-16T20:45:14.181Z,28.50
2023-07-16T20:47:41.030Z,28.50
2023-07-16T20:50:09.032Z,28.50
2023-07-16T20:52:35.876Z,28.50
2023-07-16T20:55:02.690Z,28.40
2023-07-16T20:57:29.562Z,28.40
2023-07-16T20:59:56.390Z,28.40
2023-07-16T21:02:23.402Z,28.30
2023-07-16T21:04:50.728Z,28.30
2023-07-16T21:07:17.570Z,28.30
2023-07-16T21:09:44.390Z,28.30
2023-07-16T21:12:11.237Z,28.20
2023-07-16T21:14:38.081Z,28.20
2023-07-16T21:17:05.207Z,28.20
2023-07-16T21:19:32.720Z,28.10
2023-07-16T21:21:59.551Z,28.10
2023-07-16T21:24:26.411Z,28.10
2023-07-16T21:26:53.271Z,28.10
2023-07-16T21:29:20.071Z,28.00
2023-07-16T21:31:47.691Z,28.00
2023-07-16T21:34:14.573Z,28.00
2023-07-16T21:36:41.407Z,27.90
2023-07-16T21:39:08.254Z,27.90
2023-07-16T21:41:35.170Z,27.90
2023-07-16T21:44:01.985Z,27.90
2023-07-16T21:46:28.840Z,27.90
2023-07-16T21:48:55.678Z,27.90
2023-07-16T21:51:22.555Z,27.80
2023-07-16T21:53:49.375Z,27.80
2023-07-16T21:56:16.871Z,27.80
2023-07-16T21:58:43.855Z,27.70
2023-07-16T22:01:10.746Z,27.70
2023-07-16T22:03:37.595Z,27.70
2023-07-16T22:06:06.031Z,27.60
2023-07-16T22:08:32.853Z,27.60
2023-07-16T22:10:59.664Z,27.50
2023-07-16T22:13:28.087Z,27.50
2023-07-16T22:15:54.950Z,27.50
2023-07-16T22:18:21.890Z,27.50
2023-07-16T22:20:48.860Z,27.50
2023-07-16T22:23:15.732Z,27.40
2023-07-16T22:25:42.576Z,27.40
2023-07-16T22:28:09.424Z,27.40
2023-07-16T22:30:36.269Z,27.30
2023-07-16T22:33:03.146Z,27.30
2023-07-16T22:35:30.005Z,27.30
2023-07-16T22:37:56.936Z,27.30
2023-07-16T22:40:23.896Z,27.30
2023-07-16T22:42:50.714Z,27.30
2023-07-16T22:45:17.561Z,27.30
2023-07-16T22:47:44.479Z,27.30
2023-07-16T22:50:11.329Z,27.30
2023-07-16T22:52:38.178Z,27.20
2023-07-16T22:55:05.250Z,27.30
2023-07-16T22:57:32.109Z,27.20
2023-07-16T23:00:00.776Z,27.20
2023-07-16T23:02:28.482Z,27.20
2023-07-16T23:04:55.633Z,27.20
2023-07-16T23:07:22.456Z,27.20
2023-07-16T23:09:49.310Z,27.20
2023-07-16T23:12:16.136Z,27.10
2023-07-16T23:14:42.967Z,27.10
2023-07-16T23:17:09.883Z,27.10
2023-07-16T23:19:36.848Z,27.00
2023-07-16T23:22:05.016Z,27.10
2023-07-16T23:24:32.339Z,27.00
2023-07-16T23:26:59.179Z,27.00
2023-07-16T23:29:26.025Z,27.00
2023-07-16T23:31:53.202Z,27.00
2023-07-16T23:34:20.123Z,27.00
2023-07-16T23:36:47.370Z,27.00
2023-07-16T23:39:14.232Z,27.00
2023-07-16T23:41:41.137Z,27.00
2023-07-16T23:44:08.024Z,26.90
2023-07-16T23:46:34.922Z,26.90
2023-07-16T23:49:01.778Z,26.90
2023-07-16T23:51:28.731Z,26.90
2023-07-16T23:54:02.742Z,26.90
2023-07-16T23:56:35.699Z,26.90
2023-07-16T23:59:02.503Z,26.90
